Terminal Aerodrome Forecast
Issued by NWS Upton, NY

Home | Current Version | Previous Version | Text Only | Print | Product List | Glossary On
Versions: 1 2 3 4 5 6 7 8 9 10 11 12 13 14 15 16 17 18 19 20 21 22 23 24
000
FTUS41 KOKX 230800 AAA
TAFBDR
TAF AMD
KBDR 230833Z 2309/2406 23008KT P6SM FEW250
     FM231500 20009KT P6SM SCT050
     FM240100 VRB05KT P6SM SCT050 BKN250 PROB30 2401/2406 5SM TSRA
      BKN050CB=

USA.gov is the U.S. government's official web portal to all federal, state and local government web resources and services.